Главная страница
METAR-TAF:

METAR-TAF

Аэропорты :

Оденсе, Дания

широта: 55-29N, долгота: 010-20E, высота над уровнем моря: 17 м

Текущие метеонаблюдения

Эта сводка был подготовлена 43 минут назад, в 14:50 UTC
Ветер 16 Узел от восточный
Температура 8°C
Влажность 93%
Давление 1009 hPa
Видимость 10 км и более
Сплошная облачность на высоте 1900 фута

METAR: EKOD 151450Z 08016KT 9999 OVC019 08/07 Q1009

Время: 16:33 (15:33 UTC)

Прогноз

Эта сводка был подготовлена 3 часа и 39 минут назад, в 11:54 UTC
Прогноз действительный с 15-го 12 UTC до 15-го 16 UTC
Ветер 18 Узел от восточный с порывами до 30 Узел
Видимость 10 км и более
Рассеянная облачность на высоте 1800 фута
временами
С 15-го 12 UTC до 15-го 14 UTC
Ветер 15 Узел от восточный
Рассеянная облачность на высоте 1200 фута
изменения
С 15-го 14 UTC до 15-го 16 UTC
Ветер 15 Узел от восточный
Рассеянная облачность на высоте 1200 фута

TAF: EKOD 151154Z 1512/1516 09018G30KT 9999 BKN018 TEMPO 1512/1514 09015KT BKN012 BECMG 1514/1516 09015KT BKN012

Метеонаблюдения и прогнозы для более 4000 аэропортов (сводки METAR и TAF).

Имеющиеся станции представлены на карте желтыми и красными точками.

Чтобы увидеть название станции, наведите на нее мышь.

Затем щелкните, чтобы увидеть метеонаблюдения и метеопрогнозы.

Управление картой: чтобы увеличить масштаб, щелкните зеленые кнопки с черным крестиком; чтобы уменьшить масштаб, щелкните зеленую кнопку с тире; для просмотра соседних карт щелкайте зеленые стрелки.


METAR-TAF: